Time;durP1;ratioP1;P1;durP2;ratioP2;P2;SDS_P1;SDS_P2;PMS_P1;PMS_P2;Temp;Humidity;BMP_temperature;BMP_pressure;BME280_temperature;BME280_humidity;BME280_pressure;Samples;Min_cycle;Max_cycle;Signal;HPM_P1;HPM_P2
2021/01/21 00:02:15;;;;;;;0.20;0.10;;;;;;;5.89;99.04;98473.31;5054752;28;20504;-50
2021/01/21 00:04:41;;;;;;;0.20;0.10;;;;;;;6.22;96.28;98472.03;5054784;28;20522;-51
2021/01/21 00:07:07;;;;;;;0.20;0.10;;;;;;;6.59;94.78;98457.34;5054947;28;20458;-51
2021/01/21 00:09:33;;;;;;;0.20;0.10;;;;;;;7.05;92.49;98465.91;5053478;28;20494;-53
2021/01/21 00:11:59;;;;;;;0.20;0.10;;;;;;;7.27;90.86;98458.78;5054686;28;20474;-51
2021/01/21 00:14:25;;;;;;;0.27;0.13;;;;;;;7.47;90.53;98449.06;5054712;28;20513;-50
2021/01/21 00:16:52;;;;;;;0.27;0.20;;;;;;;7.77;88.42;98447.63;5055447;28;20447;-50
2021/01/21 00:19:18;;;;;;;0.30;0.20;;;;;;;7.86;87.57;98446.38;5054660;28;20562;-50
2021/01/21 00:21:44;;;;;;;0.30;0.20;;;;;;;7.93;86.85;98448.63;5053956;28;20483;-50
2021/01/21 00:24:10;;;;;;;0.30;0.20;;;;;;;8.14;85.71;98445.91;5056785;28;20483;-50
2021/01/21 00:26:36;;;;;;;0.30;0.20;;;;;;;8.30;85.26;98452.16;5054342;28;20517;-50
2021/01/21 00:29:03;;;;;;;0.30;0.20;;;;;;;8.31;84.21;98437.97;5053016;28;20824;-52
2021/01/21 00:31:29;;;;;;;0.30;0.20;;;;;;;8.38;84.51;98436.78;5054489;28;20540;-52
2021/01/21 00:33:55;;;;;;;0.30;0.20;;;;;;;8.42;84.40;98440.13;5054062;28;20956;-51
2021/01/21 00:36:21;;;;;;;0.30;0.20;;;;;;;8.47;83.30;98446.91;5053976;28;20974;-50
2021/01/21 00:38:47;;;;;;;0.30;0.20;;;;;;;8.58;83.13;98426.03;5054175;28;20473;-51
2021/01/21 00:41:13;;;;;;;0.30;0.20;;;;;;;8.72;82.53;98428.00;5054130;28;20545;-49
2021/01/21 00:43:39;;;;;;;0.30;0.20;;;;;;;8.76;81.84;98428.69;5054118;28;20470;-50
2021/01/21 00:46:06;;;;;;;0.30;0.20;;;;;;;8.63;82.53;98422.31;5054185;28;20486;-50
2021/01/21 00:48:32;;;;;;;0.30;0.20;;;;;;;8.84;82.66;98422.06;5053931;28;20447;-50
2021/01/21 00:50:58;;;;;;;0.30;0.20;;;;;;;8.94;81.74;98409.22;5053917;28;20515;-49
2021/01/21 00:53:25;;;;;;;0.30;0.20;;;;;;;8.99;81.60;98401.88;5053762;28;20979;-50
2021/01/21 00:55:51;;;;;;;0.30;0.20;;;;;;;9.04;80.73;98401.63;5053759;28;20861;-51
2021/01/21 00:58:17;;;;;;;0.30;0.20;;;;;;;9.06;80.52;98397.13;5040382;28;20451;-50
2021/01/21 01:00:43;;;;;;;0.30;0.20;;;;;;;9.07;79.78;98390.88;5053747;28;20521;-50
2021/01/21 01:03:09;;;;;;;0.30;0.20;;;;;;;9.13;80.35;98401.13;5040455;28;20955;-50
2021/01/21 01:05:36;;;;;;;0.30;0.20;;;;;;;9.15;80.43;98397.47;5053544;28;20486;-51
2021/01/21 01:08:03;;;;;;;0.30;0.20;;;;;;;9.11;80.38;98395.91;5053541;28;20462;-50
2021/01/21 01:10:29;;;;;;;0.30;0.20;;;;;;;9.20;80.42;98402.53;5053320;28;20474;-52
2021/01/21 01:12:55;;;;;;;0.30;0.20;;;;;;;9.25;79.81;98391.69;5053126;28;20525;-50
2021/01/21 01:15:27;;;;;;;0.30;0.20;;;;;;;9.54;78.16;98409.50;5053606;28;20827;-49
2021/01/21 01:17:53;;;;;;;0.30;0.20;;;;;;;9.49;77.84;98393.88;5053524;28;20501;-50
2021/01/21 01:20:20;;;;;;;0.30;0.20;;;;;;;9.55;78.35;98392.66;5052842;28;20562;-50
2021/01/21 01:22:50;;;;;;;0.30;0.20;;;;;;;9.55;78.05;98386.50;5053505;28;20447;-51
2021/01/21 01:25:17;;;;;;;0.30;0.20;;;;;;;9.62;77.55;98387.88;5053630;28;20548;-54
2021/01/21 01:27:44;;;;;;;0.30;0.20;;;;;;;9.67;77.11;98396.44;5053332;28;20816;-54
2021/01/21 01:30:14;;;;;;;0.30;0.20;;;;;;;9.72;77.56;98389.06;5053031;28;20474;-55
2021/01/21 01:32:41;;;;;;;0.30;0.20;;;;;;;9.76;77.28;98385.31;5053347;28;20511;-55
2021/01/21 01:35:08;;;;;;;0.30;0.20;;;;;;;9.69;76.99;98373.31;5052946;28;20447;-54
2021/01/21 01:37:35;;;;;;;0.30;0.20;;;;;;;9.77;76.53;98377.28;5052953;28;20951;-55
2021/01/21 01:40:02;;;;;;;0.30;0.20;;;;;;;9.87;76.60;98363.47;5052772;28;20561;-54
2021/01/21 01:42:28;;;;;;;0.30;0.20;;;;;;;9.83;76.45;98360.13;5052892;28;20952;-55
2021/01/21 01:44:54;;;;;;;0.30;0.20;;;;;;;9.89;76.42;98359.81;5052799;28;20540;-54
2021/01/21 01:47:21;;;;;;;0.30;0.20;;;;;;;9.88;76.93;98350.13;5052608;28;20450;-54
2021/01/21 01:49:47;;;;;;;0.30;0.20;;;;;;;9.96;75.95;98347.88;5052650;28;20490;-55
2021/01/21 01:52:16;;;;;;;0.30;0.20;;;;;;;9.98;76.32;98345.13;5052626;28;20446;-55
2021/01/21 01:54:42;;;;;;;0.30;0.20;;;;;;;9.89;77.04;98351.00;5052870;28;20450;-55
2021/01/21 01:57:09;;;;;;;0.30;0.20;;;;;;;9.98;76.70;98339.84;5052761;28;20482;-55
2021/01/21 01:59:37;;;;;;;0.40;0.37;;;;;;;9.90;76.69;98334.97;5052264;28;20871;-53
2021/01/21 02:02:03;;;;;;;0.30;0.20;;;;;;;9.99;76.26;98337.09;5052549;28;20470;-55
2021/01/21 02:04:29;;;;;;;0.30;0.20;;;;;;;10.00;75.62;98336.13;5052696;28;20490;-55
2021/01/21 02:07:06;;;;;;;0.30;0.20;;;;;;;10.06;75.42;98332.28;5052412;28;20932;-54
2021/01/21 02:09:33;;;;;;;0.30;0.20;;;;;;;10.08;75.47;98325.09;5052641;28;20504;-54
2021/01/21 02:12:13;;;;;;;0.30;0.20;;;;;;;10.17;75.23;98311.28;5052229;28;20530;-55
2021/01/21 02:14:58;;;;;;;0.30;0.20;;;;;;;10.16;75.07;98306.06;5052524;28;20443;-55
2021/01/21 02:17:34;;;;;;;0.60;0.60;;;;;;;10.19;75.10;98300.56;5052267;28;20450;-55
2021/01/21 02:20:12;;;;;;;0.30;0.20;;;;;;;10.24;74.40;98302.03;5052595;28;20438;-54
2021/01/21 02:23:16;;;;;;;0.30;0.20;;;;;;;10.20;74.47;98303.13;5051787;28;20459;-55
2021/01/21 02:26:09;;;;;;;0.30;0.20;;;;;;;10.21;73.91;98291.59;5051862;28;20552;-54
2021/01/21 02:28:49;;;;;;;0.30;0.20;;;;;;;10.28;74.06;98292.06;5050922;28;20517;-54
2021/01/21 02:31:55;;;;;;;0.30;0.20;;;;;;;10.38;72.95;98286.13;5052534;28;20458;-55
2021/01/21 02:34:30;;;;;;;0.30;0.20;;;;;;;10.38;73.09;98299.41;5019118;28;20462;-55
2021/01/21 02:36:58;;;;;;;0.30;0.20;;;;;;;10.44;73.37;98294.69;5051972;28;20450;-55
2021/01/21 02:39:26;;;;;;;0.30;0.20;;;;;;;10.43;72.67;98285.88;5052066;28;20466;-54
2021/01/21 02:41:53;;;;;;;0.30;0.20;;;;;;;10.41;72.47;98286.88;5051763;28;20471;-55
2021/01/21 02:44:19;;;;;;;0.30;0.20;;;;;;;10.49;72.75;98281.97;5051914;28;20512;-54
2021/01/21 02:46:46;;;;;;;0.30;0.20;;;;;;;10.50;72.50;98284.53;5052251;28;20455;-54
2021/01/21 02:49:13;;;;;;;0.30;0.20;;;;;;;10.52;72.55;98281.78;5051896;28;20447;-54
2021/01/21 02:51:57;;;;;;;0.30;0.20;;;;;;;10.48;72.06;98278.47;5051730;28;21041;-54
2021/01/21 02:54:35;;;;;;;0.30;0.20;;;;;;;10.49;72.03;98279.31;5052146;28;20447;-55
2021/01/21 02:57:17;;;;;;;0.30;0.20;;;;;;;10.55;72.01;98273.63;5051953;28;20462;-55
2021/01/21 02:59:44;;;;;;;0.30;0.20;;;;;;;10.50;72.83;98276.56;5052212;28;20500;-55
2021/01/21 03:02:11;;;;;;;0.30;0.20;;;;;;;10.42;72.15;98275.34;5052217;28;20459;-55
2021/01/21 03:04:39;;;;;;;0.30;0.20;;;;;;;10.39;72.59;98274.56;5051887;28;20615;-55
2021/01/21 03:07:10;;;;;;;0.30;0.20;;;;;;;10.37;73.19;98279.13;5052027;28;20487;-55
2021/01/21 03:09:42;;;;;;;0.30;0.20;;;;;;;10.35;72.86;98265.06;5051797;28;20439;-55
2021/01/21 03:12:20;;;;;;;0.30;0.20;;;;;;;10.41;72.73;98284.22;5051779;28;20467;-55
2021/01/21 03:14:47;;;;;;;0.30;0.20;;;;;;;10.35;72.99;98286.31;5051938;28;20450;-55
2021/01/21 03:17:13;;;;;;;0.30;0.20;;;;;;;10.41;73.19;98282.44;5051745;28;20454;-54
2021/01/21 03:19:40;;;;;;;0.30;0.20;;;;;;;10.44;72.89;98276.09;5051453;28;20560;-55
2021/01/21 03:22:06;;;;;;;0.30;0.20;;;;;;;10.58;72.24;98276.13;5051363;28;20482;-54
2021/01/21 03:24:32;;;;;;;0.30;0.20;;;;;;;10.54;73.01;98263.94;5051502;28;20998;-55
2021/01/21 03:26:59;;;;;;;0.30;0.20;;;;;;;10.49;72.97;98274.88;5051792;28;20796;-54
2021/01/21 03:29:26;;;;;;;0.30;0.20;;;;;;;10.52;72.78;98264.06;5051924;28;20455;-55
2021/01/21 03:31:53;;;;;;;0.30;0.20;;;;;;;10.66;72.36;98271.16;5065049;28;21135;-54
2021/01/21 03:34:19;;;;;;;0.30;0.20;;;;;;;10.57;72.80;98264.63;5051532;28;20446;-54
2021/01/21 03:36:45;;;;;;;0.30;0.20;;;;;;;10.63;73.15;98263.41;5051791;28;20462;-54
2021/01/21 03:39:11;;;;;;;0.30;0.20;;;;;;;10.70;72.72;98270.06;5051745;28;20500;-55
2021/01/21 03:41:37;;;;;;;0.30;0.20;;;;;;;10.59;73.29;98265.41;5051286;28;20474;-54
2021/01/21 03:44:04;;;;;;;0.30;0.20;;;;;;;10.59;73.23;98261.88;5052537;28;20509;-55
2021/01/21 03:46:30;;;;;;;0.30;0.20;;;;;;;10.61;73.33;98279.44;5055172;28;20513;-54
2021/01/21 03:48:56;;;;;;;0.30;0.20;;;;;;;10.61;73.77;98273.28;5054872;28;20565;-54
2021/01/21 03:51:23;;;;;;;0.30;0.20;;;;;;;10.67;73.90;98264.91;5055089;28;20588;-54
2021/01/21 03:53:49;;;;;;;0.30;0.20;;;;;;;10.63;73.90;98269.56;5050465;28;20454;-55
2021/01/21 03:56:15;;;;;;;0.30;0.20;;;;;;;10.75;73.40;98267.09;5052335;28;20446;-53
2021/01/21 03:58:41;;;;;;;0.30;0.20;;;;;;;10.69;74.33;98278.97;5055176;28;20458;-55
2021/01/21 04:01:07;;;;;;;0.30;0.20;;;;;;;10.68;74.31;98250.66;5054705;28;20999;-54
2021/01/21 04:03:33;;;;;;;0.30;0.20;;;;;;;10.76;74.41;98272.31;5054706;28;20451;-55
2021/01/21 04:06:00;;;;;;;0.30;0.20;;;;;;;10.76;74.74;98260.84;5054797;28;20490;-54
2021/01/21 04:08:27;;;;;;;0.30;0.20;;;;;;;10.73;75.02;98264.56;5054864;28;20970;-55
2021/01/21 04:10:53;;;;;;;0.30;0.20;;;;;;;10.68;75.28;98248.88;5054442;28;20818;-55
2021/01/21 04:13:19;;;;;;;0.30;0.20;;;;;;;10.70;75.75;98251.47;5054522;28;20454;-53
2021/01/21 04:15:46;;;;;;;0.30;0.20;;;;;;;10.63;76.32;98256.28;5054482;28;20443;-54
2021/01/21 04:18:13;;;;;;;0.30;0.20;;;;;;;10.69;76.48;98257.72;5054543;28;20993;-54
2021/01/21 04:20:39;;;;;;;0.30;0.20;;;;;;;10.71;76.35;98271.75;5054432;28;20482;-55
2021/01/21 04:23:06;;;;;;;0.30;0.20;;;;;;;10.74;76.91;98260.94;5054496;28;20963;-55
2021/01/21 04:25:32;;;;;;;0.30;0.20;;;;;;;10.72;76.88;98267.31;5054134;28;20544;-54
2021/01/21 04:27:59;;;;;;;0.30;0.20;;;;;;;10.71;77.36;98261.13;5054364;28;20455;-54
2021/01/21 04:30:25;;;;;;;0.30;0.20;;;;;;;10.74;77.50;98271.56;5054625;28;20865;-55
2021/01/21 04:32:52;;;;;;;0.30;0.20;;;;;;;10.75;77.80;98267.97;5054231;28;20447;-54
2021/01/21 04:35:18;;;;;;;0.30;0.20;;;;;;;10.73;78.29;98256.56;5053961;28;20537;-54
2021/01/21 04:37:45;;;;;;;0.30;0.20;;;;;;;10.68;78.32;98269.28;5054428;28;20473;-54
2021/01/21 04:40:12;;;;;;;0.30;0.20;;;;;;;10.66;78.36;98269.38;5054025;28;20983;-53
2021/01/21 04:42:38;;;;;;;0.30;0.20;;;;;;;10.70;78.29;98263.88;5053999;28;20936;-53
2021/01/21 04:45:05;;;;;;;0.30;0.20;;;;;;;10.68;78.55;98259.50;5053915;28;20536;-53
2021/01/21 04:47:32;;;;;;;0.30;0.20;;;;;;;10.58;78.80;98265.50;5053900;28;20874;-54
2021/01/21 04:50:00;;;;;;;0.30;0.20;;;;;;;10.59;78.91;98249.47;5053535;28;20501;-54
2021/01/21 04:52:28;;;;;;;0.30;0.20;;;;;;;10.50;79.53;98242.03;5054103;28;20450;-55
2021/01/21 04:55:01;;;;;;;0.30;0.20;;;;;;;10.57;79.11;98247.84;5053587;28;20955;-54
2021/01/21 04:57:37;;;;;;;0.30;0.20;;;;;;;10.55;79.25;98252.38;5053649;28;20458;-55
2021/01/21 05:00:04;;;;;;;0.30;0.20;;;;;;;10.48;79.65;98240.44;5054015;28;20482;-54
2021/01/21 05:02:31;;;;;;;0.30;0.20;;;;;;;10.53;79.49;98239.19;5053968;28;20459;-52
2021/01/21 05:04:59;;;;;;;0.30;0.20;;;;;;;10.55;79.45;98233.78;5053539;28;21046;-54
2021/01/21 05:07:27;;;;;;;0.30;0.20;;;;;;;10.54;79.22;98240.03;5053434;28;20446;-54
2021/01/21 05:09:55;;;;;;;0.30;0.20;;;;;;;10.57;79.00;98229.25;5053838;28;20451;-54
2021/01/21 05:12:21;;;;;;;0.30;0.20;;;;;;;10.48;80.05;98238.63;5052392;28;20858;-54
2021/01/21 05:14:47;;;;;;;0.30;0.20;;;;;;;10.52;79.77;98236.63;5053842;28;20443;-53
2021/01/21 05:17:13;;;;;;;0.30;0.20;;;;;;;10.51;80.01;98225.16;5051993;28;20862;-53
2021/01/21 05:19:44;;;;;;;0.30;0.20;;;;;;;10.47;79.69;98217.47;5053326;28;20903;-53
2021/01/21 05:22:12;;;;;;;0.30;0.20;;;;;;;10.36;80.41;98197.75;5053152;28;20886;-52
2021/01/21 05:24:38;;;;;;;0.30;0.20;;;;;;;10.47;79.97;98198.88;5053325;28;20450;-53
2021/01/21 05:27:05;;;;;;;0.30;0.20;;;;;;;10.57;79.44;98200.03;5052901;28;21073;-54
2021/01/21 05:29:31;;;;;;;0.30;0.20;;;;;;;10.53;79.64;98195.84;5052934;28;20943;-53
2021/01/21 05:31:59;;;;;;;0.30;0.20;;;;;;;10.53;79.84;98190.53;5052980;28;20463;-53
2021/01/21 05:34:32;;;;;;;0.30;0.20;;;;;;;10.54;80.33;98179.81;5052811;28;20948;-54
2021/01/21 05:37:00;;;;;;;0.30;0.20;;;;;;;10.63;79.96;98184.53;5053262;28;20883;-53
2021/01/21 05:39:36;;;;;;;0.30;0.20;;;;;;;10.73;79.68;98192.81;5052846;28;20451;-54
2021/01/21 05:42:03;;;;;;;0.30;0.20;;;;;;;10.74;79.36;98185.69;5052691;28;20473;-54
2021/01/21 05:44:31;;;;;;;0.30;0.20;;;;;;;10.70;79.80;98187.69;5053073;28;20455;-54
2021/01/21 05:47:00;;;;;;;0.30;0.20;;;;;;;10.78;80.03;98196.00;5039694;28;20512;-54
2021/01/21 05:49:27;;;;;;;0.30;0.20;;;;;;;10.82;80.16;98175.41;5053092;28;20454;-54
2021/01/21 05:51:57;;;;;;;0.30;0.20;;;;;;;10.87;79.89;98199.91;5052718;28;20547;-54
2021/01/21 05:54:27;;;;;;;0.30;0.20;;;;;;;10.80;80.55;98195.91;5052963;28;20469;-54
2021/01/21 05:56:55;;;;;;;0.30;0.20;;;;;;;10.86;80.59;98196.41;5052891;28;20446;-54
2021/01/21 05:59:24;;;;;;;0.30;0.20;;;;;;;10.84;80.80;98195.66;5052809;28;20455;-53
2021/01/21 06:01:52;;;;;;;0.30;0.20;;;;;;;10.89;80.87;98211.28;5052722;28;20988;-54
2021/01/21 06:04:24;;;;;;;0.30;0.20;;;;;;;10.84;80.74;98214.25;5052797;28;20830;-52
2021/01/21 06:06:51;;;;;;;0.30;0.20;;;;;;;10.91;81.07;98225.31;5052070;28;20443;-53
2021/01/21 06:09:26;;;;;;;0.30;0.20;;;;;;;10.93;81.05;98202.16;5051936;28;20958;-54
2021/01/21 06:11:58;;;;;;;0.30;0.20;;;;;;;10.93;81.06;98218.09;5052562;28;20520;-54
2021/01/21 06:14:25;;;;;;;0.30;0.20;;;;;;;10.89;81.65;98222.78;5052353;28;20845;-54
2021/01/21 06:16:52;;;;;;;0.30;0.20;;;;;;;10.98;81.51;98205.41;5052322;28;20451;-53
2021/01/21 06:19:19;;;;;;;0.30;0.20;;;;;;;10.96;81.67;98218.78;5052182;28;20451;-53
2021/01/21 06:21:54;;;;;;;0.30;0.20;;;;;;;10.89;82.08;98211.28;5052228;28;20474;-54
2021/01/21 06:24:29;;;;;;;0.30;0.20;;;;;;;10.97;82.02;98215.19;5052832;28;20496;-54
2021/01/21 06:26:58;;;;;;;0.30;0.20;;;;;;;10.93;82.64;98210.97;5052242;28;20438;-54
2021/01/21 06:29:27;;;;;;;0.30;0.20;;;;;;;10.91;82.34;98204.06;5052031;28;20935;-53
2021/01/21 06:31:57;;;;;;;0.30;0.20;;;;;;;10.95;83.86;98219.72;5052429;28;20467;-54
2021/01/21 06:34:27;;;;;;;0.30;0.20;;;;;;;10.93;84.43;98221.63;5052179;28;20561;-53
2021/01/21 06:36:59;;;;;;;0.30;0.20;;;;;;;10.88;84.31;98202.47;5051969;28;20462;-54
2021/01/21 06:40:21;;;;;;;0.30;0.20;;;;;;;10.85;84.24;98215.94;5051938;28;20446;-55
2021/01/21 06:43:02;;;;;;;0.30;0.20;;;;;;;10.93;84.44;98208.31;4983036;28;20465;-56
2021/01/21 06:45:31;;;;;;;0.30;0.20;;;;;;;11.00;84.51;98198.19;5033619;28;20868;-55
2021/01/21 06:47:58;;;;;;;0.30;0.20;;;;;;;10.89;84.66;98203.31;5052376;28;20473;-54
2021/01/21 06:50:28;;;;;;;0.30;0.20;;;;;;;10.96;84.94;98208.16;5051964;28;20466;-54
2021/01/21 06:52:57;;;;;;;0.30;0.20;;;;;;;10.88;85.46;98214.91;5052022;28;20450;-55
2021/01/21 06:55:25;;;;;;;0.30;0.20;;;;;;;10.80;86.48;98202.06;5051876;28;20447;-55
2021/01/21 06:57:51;;;;;;;0.30;0.20;;;;;;;10.87;86.01;98198.09;5051661;28;20508;-53
2021/01/21 07:00:36;;;;;;;0.30;0.20;;;;;;;10.86;86.35;98220.31;5051963;28;20467;-54
2021/01/21 07:03:02;;;;;;;0.30;0.20;;;;;;;10.92;86.70;98222.56;5051775;28;20454;-54
2021/01/21 07:05:28;;;;;;;0.30;0.20;;;;;;;10.91;86.83;98239.47;5052044;28;20499;-54
2021/01/21 07:08:04;;;;;;;0.30;0.20;;;;;;;10.96;86.82;98220.56;5051948;28;20492;-55
2021/01/21 07:10:34;;;;;;;0.30;0.20;;;;;;;10.92;86.95;98216.41;5051960;28;20472;-54
2021/01/21 07:13:07;;;;;;;0.30;0.20;;;;;;;10.87;87.59;98221.16;5051939;28;20558;-53
2021/01/21 07:15:40;;;;;;;0.30;0.20;;;;;;;10.95;87.27;98219.72;5051866;28;20435;-55
2021/01/21 07:18:12;;;;;;;0.30;0.20;;;;;;;10.94;88.09;98220.66;5051795;28;20861;-55
2021/01/21 07:21:06;;;;;;;0.30;0.20;;;;;;;11.03;87.42;98205.09;5055646;28;20470;-54
2021/01/21 07:24:08;;;;;;;0.30;0.20;;;;;;;11.08;87.55;98224.25;5055316;28;20956;-52
2021/01/21 07:26:43;;;;;;;0.30;0.20;;;;;;;11.13;87.54;98227.50;5013844;28;21112;-49
2021/01/21 07:29:20;;;;;;;0.30;0.20;;;;;;;11.09;87.72;98229.47;5050399;28;20446;-49
2021/01/21 07:31:52;;;;;;;0.30;0.20;;;;;;;11.11;88.08;98253.31;5055546;28;20462;-49
2021/01/21 07:34:29;;;;;;;0.30;0.20;;;;;;;11.11;87.67;98224.09;5055162;28;20549;-49
2021/01/21 07:37:17;;;;;;;0.30;0.20;;;;;;;11.06;89.56;98231.47;5055171;28;20970;-49
2021/01/21 07:39:50;;;;;;;0.30;0.20;;;;;;;10.96;91.59;98237.41;5055571;28;20439;-51
2021/01/21 07:42:17;;;;;;;0.30;0.20;;;;;;;11.06;91.98;98239.44;5055441;28;20442;-50
2021/01/21 07:45:19;;;;;;;0.30;0.20;;;;;;;10.97;92.67;98223.16;5055343;28;20465;-50
2021/01/21 07:47:46;;;;;;;0.30;0.20;;;;;;;10.96;92.79;98244.50;5053087;28;20454;-50
2021/01/21 07:50:19;;;;;;;0.30;0.20;;;;;;;10.94;93.11;98235.75;5054709;28;20493;-50
2021/01/21 07:52:53;;;;;;;0.30;0.20;;;;;;;11.02;93.43;98232.63;5054601;28;20457;-49
2021/01/21 07:55:41;;;;;;;0.30;0.20;;;;;;;10.93;94.15;98234.91;5055107;28;20447;-50
2021/01/21 07:58:19;;;;;;;0.30;0.20;;;;;;;10.94;93.77;98236.63;5054794;28;20445;-50
2021/01/21 08:00:50;;;;;;;0.30;0.20;;;;;;;10.83;96.33;98246.25;5054817;28;20825;-50
2021/01/21 08:03:39;;;;;;;0.30;0.20;;;;;;;10.65;97.66;98241.09;5054744;28;20447;-50
2021/01/21 08:06:13;;;;;;;0.30;0.20;;;;;;;10.77;96.94;98243.94;5055161;28;20486;-50
2021/01/21 08:08:42;;;;;;;0.30;0.20;;;;;;;10.78;97.18;98243.84;5055176;28;20923;-49
2021/01/21 08:11:11;;;;;;;0.30;0.20;;;;;;;10.75;96.53;98249.34;5054943;28;20967;-49
2021/01/21 08:13:38;;;;;;;0.30;0.20;;;;;;;10.77;96.41;98250.13;5054263;28;20447;-49
2021/01/21 08:16:05;;;;;;;0.30;0.20;;;;;;;10.66;96.39;98253.44;5054647;28;20458;-49
2021/01/21 08:18:35;;;;;;;0.30;0.20;;;;;;;10.67;96.92;98254.28;5054705;28;20451;-49
2021/01/21 08:21:21;;;;;;;0.30;0.20;;;;;;;10.69;98.06;98255.06;5054245;28;20475;-49
2021/01/21 08:24:03;;;;;;;0.30;0.20;;;;;;;10.66;98.07;98265.84;5050021;28;20443;-49
2021/01/21 08:26:31;;;;;;;0.30;0.20;;;;;;;10.79;97.72;98255.31;5054412;28;20498;-49
2021/01/21 08:28:58;;;;;;;0.30;0.20;;;;;;;10.86;98.32;98259.31;5054285;28;20963;-49
2021/01/21 08:31:37;;;;;;;0.30;0.20;;;;;;;10.82;97.77;98253.31;5053341;28;20545;-49
2021/01/21 08:34:07;;;;;;;0.30;0.20;;;;;;;10.77;98.60;98260.75;5054326;28;20447;-49
2021/01/21 08:36:34;;;;;;;0.30;0.20;;;;;;;10.70;99.90;98274.53;5053971;28;20508;-49
2021/01/21 08:39:02;;;;;;;0.30;0.20;;;;;;;10.71;99.95;98271.75;5054049;28;20948;-49
2021/01/21 08:41:29;;;;;;;0.30;0.20;;;;;;;10.73;99.72;98269.00;5053684;28;20479;-49
2021/01/21 08:43:59;;;;;;;0.30;0.20;;;;;;;10.67;99.63;98272.88;5054228;28;20450;-49
2021/01/21 08:46:27;;;;;;;0.30;0.20;;;;;;;10.70;99.35;98287.81;5053909;28;20498;-49
2021/01/21 08:48:53;;;;;;;0.30;0.20;;;;;;;10.80;99.56;98284.47;5053863;28;20871;-50
2021/01/21 08:51:25;;;;;;;0.30;0.20;;;;;;;10.79;99.25;98303.16;5053674;28;20479;-49
2021/01/21 08:53:51;;;;;;;0.30;0.20;;;;;;;10.82;99.11;98282.56;5054105;28;20454;-50
2021/01/21 08:56:17;;;;;;;0.30;0.20;;;;;;;10.89;99.05;98286.56;5053454;28;20866;-49
2021/01/21 08:58:44;;;;;;;0.30;0.20;;;;;;;10.98;98.83;98290.47;5054008;28;20450;-49
2021/01/21 09:01:12;;;;;;;0.30;0.20;;;;;;;10.96;99.07;98292.34;5053619;28;20537;-49
2021/01/21 09:03:38;;;;;;;0.30;0.20;;;;;;;10.88;98.85;98305.28;5053554;28;21013;-49
2021/01/21 09:06:06;;;;;;;0.30;0.20;;;;;;;10.84;99.07;98311.72;5053818;28;20494;-49
2021/01/21 09:08:44;;;;;;;0.30;0.20;;;;;;;10.82;98.95;98318.91;5053840;28;20504;-49
2021/01/21 09:11:34;;;;;;;0.30;0.20;;;;;;;10.84;99.94;98333.00;5052497;28;20462;-50
2021/01/21 09:14:01;;;;;;;0.30;0.20;;;;;;;10.77;100.00;98352.91;5052456;28;20819;-49
2021/01/21 09:16:39;;;;;;;0.30;0.20;;;;;;;10.69;100.00;98350.72;5053764;28;20522;-49
2021/01/21 09:19:05;;;;;;;0.30;0.20;;;;;;;10.70;100.00;98363.06;5053078;28;20446;-51
2021/01/21 09:21:32;;;;;;;0.30;0.20;;;;;;;10.53;100.00;98395.91;5053214;28;20498;-49
2021/01/21 09:24:09;;;;;;;0.30;0.20;;;;;;;10.24;100.00;98418.88;5053241;28;20500;-50
2021/01/21 09:26:36;;;;;;;0.30;0.20;;;;;;;9.90;100.00;98445.59;5051892;28;20869;-49
2021/01/21 09:29:03;;;;;;;0.30;0.20;;;;;;;9.55;100.00;98452.81;5053121;28;21010;-49
2021/01/21 09:31:31;;;;;;;0.40;0.40;;;;;;;9.32;100.00;98456.69;5052904;28;20483;-49
2021/01/21 09:33:58;;;;;;;0.30;0.20;;;;;;;9.13;100.00;98454.16;5053166;28;20525;-49
2021/01/21 09:36:27;;;;;;;0.30;0.20;;;;;;;9.02;100.00;98461.78;5053207;28;20884;-49
2021/01/21 09:38:55;;;;;;;0.30;0.20;;;;;;;9.04;100.00;98460.78;5053263;28;20451;-49
2021/01/21 09:41:23;;;;;;;0.30;0.20;;;;;;;8.81;100.00;98466.41;5052403;28;20540;-49
2021/01/21 09:43:49;;;;;;;0.30;0.20;;;;;;;8.74;100.00;98471.16;5053040;28;20517;-51
2021/01/21 09:46:21;;;;;;;0.30;0.20;;;;;;;8.86;100.00;98469.69;5052669;28;20501;-49
2021/01/21 09:48:47;;;;;;;0.30;0.20;;;;;;;8.74;100.00;98470.28;5052922;28;20504;-50
2021/01/21 09:51:13;;;;;;;0.30;0.20;;;;;;;8.75;100.00;98479.94;5052626;28;20474;-51
2021/01/21 09:53:39;;;;;;;0.30;0.20;;;;;;;8.82;100.00;98486.69;5052622;28;20451;-48
2021/01/21 09:56:05;;;;;;;0.30;0.20;;;;;;;8.82;100.00;98498.13;5052831;28;20500;-49
2021/01/21 09:58:31;;;;;;;0.30;0.20;;;;;;;8.72;100.00;98504.81;5052599;28;20450;-49
2021/01/21 10:00:57;;;;;;;0.30;0.20;;;;;;;8.87;100.00;98506.69;5052564;28;20818;-49
2021/01/21 10:03:23;;;;;;;0.30;0.20;;;;;;;9.05;100.00;98512.00;5052513;28;20446;-49
2021/01/21 10:05:50;;;;;;;0.30;0.20;;;;;;;9.00;100.00;98504.28;5052733;28;20494;-49
2021/01/21 10:08:16;;;;;;;0.30;0.20;;;;;;;9.02;100.00;98513.00;5052702;28;20447;-49
2021/01/21 10:10:42;;;;;;;0.30;0.20;;;;;;;9.16;100.00;98512.28;5052364;28;20475;-49
2021/01/21 10:13:08;;;;;;;0.30;0.20;;;;;;;9.16;100.00;98509.66;5052431;28;20508;-49
2021/01/21 10:15:34;;;;;;;0.30;0.20;;;;;;;9.07;100.00;98510.13;5052408;28;20573;-49
2021/01/21 10:18:00;;;;;;;0.30;0.20;;;;;;;9.10;100.00;98504.66;5052581;28;20447;-49
2021/01/21 10:20:28;;;;;;;0.30;0.20;;;;;;;9.16;100.00;98505.19;5052130;28;20541;-49
2021/01/21 10:22:54;;;;;;;0.30;0.20;;;;;;;9.40;100.00;98496.91;5052249;28;20442;-49
2021/01/21 10:25:20;;;;;;;0.30;0.20;;;;;;;9.53;100.00;98500.63;5052160;28;20486;-49
2021/01/21 10:27:47;;;;;;;0.30;0.20;;;;;;;9.44;100.00;98495.81;5052456;28;20447;-50
2021/01/21 10:30:14;;;;;;;0.30;0.20;;;;;;;9.64;100.00;98500.06;5054792;28;20474;-49
2021/01/21 10:32:40;;;;;;;0.30;0.20;;;;;;;9.48;100.00;98500.03;5062977;28;20450;-49
2021/01/21 10:35:06;;;;;;;0.30;0.20;;;;;;;9.47;100.00;98512.44;5052382;28;20450;-49
2021/01/21 10:37:33;;;;;;;0.30;0.20;;;;;;;9.48;99.83;98500.88;5052043;28;20458;-49
2021/01/21 10:39:59;;;;;;;0.30;0.20;;;;;;;9.50;99.05;98504.31;5052226;28;20450;-49
2021/01/21 10:42:25;;;;;;;0.30;0.20;;;;;;;9.61;98.39;98487.84;5051901;28;20450;-49
2021/01/21 10:44:52;;;;;;;0.30;0.20;;;;;;;9.69;98.80;98493.56;5052050;28;20447;-50
2021/01/21 10:47:18;;;;;;;0.30;0.20;;;;;;;9.76;98.50;98502.91;5052002;28;20501;-50
2021/01/21 10:49:44;;;;;;;0.30;0.20;;;;;;;9.74;97.69;98499.50;5052364;28;20505;-49
2021/01/21 10:52:10;;;;;;;0.30;0.20;;;;;;;9.84;97.16;98506.94;5051771;28;20767;-49
2021/01/21 10:54:37;;;;;;;0.30;0.20;;;;;;;9.85;97.63;98519.25;5054262;28;20454;-49
2021/01/21 10:57:03;;;;;;;0.30;0.20;;;;;;;9.56;97.95;98523.47;5055954;28;20550;-49
2021/01/21 10:59:29;;;;;;;0.30;0.20;;;;;;;9.64;95.92;98527.44;5055741;28;20450;-49
2021/01/21 11:01:55;;;;;;;0.30;0.20;;;;;;;9.62;96.19;98529.34;5056246;28;20466;-49
2021/01/21 11:04:23;;;;;;;0.30;0.20;;;;;;;9.83;95.10;98531.75;5055804;28;20958;-50
2021/01/21 11:06:50;;;;;;;0.30;0.20;;;;;;;9.65;95.94;98528.31;5056124;28;20509;-49
2021/01/21 11:09:16;;;;;;;0.30;0.20;;;;;;;9.66;95.39;98514.97;5056141;28;20453;-49
2021/01/21 11:11:42;;;;;;;0.30;0.20;;;;;;;9.56;95.16;98519.03;5055861;28;20500;-49
2021/01/21 11:14:09;;;;;;;0.30;0.20;;;;;;;9.64;94.25;98534.56;5055992;28;20450;-49
2021/01/21 11:16:35;;;;;;;0.30;0.20;;;;;;;9.52;94.28;98527.25;5055813;28;20529;-49
2021/01/21 11:19:01;;;;;;;0.30;0.20;;;;;;;9.48;94.67;98529.19;5055387;28;20836;-49
2021/01/21 11:21:27;;;;;;;0.30;0.20;;;;;;;9.72;92.45;98530.53;5055385;28;20852;-49
2021/01/21 11:23:53;;;;;;;0.30;0.20;;;;;;;9.71;93.15;98531.47;5055932;28;20454;-49
2021/01/21 11:26:19;;;;;;;0.30;0.20;;;;;;;9.69;94.15;98525.41;5055546;28;20494;-49
2021/01/21 11:28:46;;;;;;;0.30;0.20;;;;;;;9.46;93.53;98533.72;5055563;28;20943;-49
2021/01/21 11:31:12;;;;;;;0.30;0.20;;;;;;;9.54;90.96;98528.88;5055488;28;20524;-49
2021/01/21 11:33:40;;;;;;;0.30;0.20;;;;;;;9.57;91.79;98536.66;5055809;28;20451;-49
2021/01/21 11:36:07;;;;;;;0.30;0.20;;;;;;;9.66;90.60;98535.31;5055668;28;20550;-49
2021/01/21 11:38:33;;;;;;;0.30;0.20;;;;;;;9.44;87.61;98540.88;5055404;28;20806;-49
2021/01/21 11:40:59;;;;;;;0.30;0.20;;;;;;;9.52;88.57;98537.84;5055292;28;20485;-49
2021/01/21 11:43:25;;;;;;;0.30;0.20;;;;;;;9.42;87.98;98532.16;5055431;28;20496;-49
2021/01/21 11:45:51;;;;;;;0.30;0.20;;;;;;;9.45;87.74;98547.91;5054954;28;20486;-49
2021/01/21 11:48:18;;;;;;;0.30;0.20;;;;;;;9.37;88.54;98539.50;5055080;28;20450;-49